EDFM/MHG METAR and TAF weather

Enter ICAO airport designator
Station Type Date Time Source
EDFM METAR 2020/03/31 18:50 UTC NOAA

EDFM 311850Z 14002KT CAVOK 06/M06 Q1026


Station Type Date Time Source
EDFM Decoded METAR 2020/03/31 18:50 UTC NOAA

Baden Wurttemberg, Neuostheim, Germany (EDFM) 49-28-21N 008-30-56E
Mar 31, 2020 - 02:50 PM EDT / 2020.03.31 1850 UTC
Wind: from the SE (140 degrees) at 2 MPH (2 KT):0
Visibility: greater than 7 mile(s):0
Temperature: 42 F (6 C)
Dew Point: 21 F (-6 C)
Relative Humidity: 41%
Pressure (altimeter): 30.30 in. Hg (1026 hPa)
ob: EDFM 311850Z 14002KT CAVOK 06/M06 Q1026
cycle: 19

Station Type Date Time Source
EDFM TAF 2012/03/06 06:30 UTC NOAA

TAF EDFM 060519Z 0606/0621 15004KT 9999 FEW040

Example: see airport list